createdAt,value
2019-02-10T00:00:36.992Z,98.60
2019-02-10T00:03:05.399Z,98.70
2019-02-10T00:05:33.788Z,98.70
2019-02-10T00:08:02.211Z,98.60
2019-02-10T00:10:30.612Z,99.00
2019-02-10T00:13:21.920Z,98.70
2019-02-10T00:15:50.343Z,98.70
2019-02-10T00:18:18.902Z,98.60
2019-02-10T00:20:47.311Z,98.70
2019-02-10T00:23:15.712Z,98.60
2019-02-10T00:25:44.179Z,98.70
2019-02-10T00:28:12.578Z,98.70
2019-02-10T00:30:40.983Z,98.80
2019-02-10T00:33:09.426Z,98.80
2019-02-10T00:35:37.820Z,98.80
2019-02-10T00:38:06.248Z,98.70
2019-02-10T00:40:34.729Z,98.80
2019-02-10T00:43:04.033Z,98.70
2019-02-10T00:45:32.431Z,98.80
2019-02-10T00:48:00.832Z,98.80
2019-02-10T00:50:29.259Z,98.90
2019-02-10T00:52:57.669Z,98.80
2019-02-10T00:55:26.063Z,98.90
2019-02-10T00:57:54.476Z,98.70
2019-02-10T01:00:22.878Z,98.80
2019-02-10T01:02:51.369Z,98.80
2019-02-10T01:05:19.771Z,98.60
2019-02-10T01:07:48.165Z,98.70
2019-02-10T01:10:16.836Z,98.70
2019-02-10T01:12:45.236Z,98.70
2019-02-10T01:15:13.728Z,98.60
2019-02-10T01:17:42.124Z,98.50
2019-02-10T01:20:10.515Z,98.50
2019-02-10T01:22:38.911Z,98.40
2019-02-10T01:25:08.019Z,98.60
2019-02-10T01:27:36.447Z,98.40
2019-02-10T01:30:08.104Z,98.40
2019-02-10T01:32:36.504Z,98.30
2019-02-10T01:35:04.962Z,98.20
2019-02-10T01:37:33.423Z,98.30
2019-02-10T01:40:01.880Z,98.20
2019-02-10T01:42:30.271Z,98.10
2019-02-10T01:44:59.599Z,98.10
2019-02-10T01:47:28.063Z,98.20
2019-02-10T01:49:56.498Z,98.30
2019-02-10T01:52:24.919Z,98.20
2019-02-10T01:54:53.313Z,98.20
2019-02-10T01:57:21.716Z,98.30
2019-02-10T01:59:50.111Z,98.30
2019-02-10T02:02:18.515Z,98.40
2019-02-10T02:04:46.958Z,98.30
2019-02-10T02:07:15.417Z,98.30
2019-02-10T02:09:43.889Z,98.10
2019-02-10T02:12:12.292Z,98.10
2019-02-10T02:14:40.684Z,98.10
2019-02-10T02:17:09.110Z,97.80
2019-02-10T02:19:37.503Z,97.70
2019-02-10T02:22:05.904Z,97.50
2019-02-10T02:24:34.295Z,97.50
2019-02-10T02:27:02.692Z,97.50
2019-02-10T02:29:31.123Z,97.50
2019-02-10T02:31:59.526Z,97.50
2019-02-10T02:34:27.920Z,97.40
2019-02-10T02:36:56.308Z,97.50
2019-02-10T02:39:24.703Z,97.50
2019-02-10T02:41:53.201Z,97.40
2019-02-10T02:44:21.663Z,97.30
2019-02-10T02:46:50.121Z,97.30
2019-02-10T02:49:18.515Z,97.50
2019-02-10T02:51:46.918Z,97.30
2019-02-10T02:54:15.361Z,97.30
2019-02-10T02:56:43.749Z,97.30
2019-02-10T02:59:12.156Z,97.30
2019-02-10T03:01:40.551Z,97.50
2019-02-10T03:04:08.948Z,97.20
2019-02-10T03:06:45.996Z,97.30
2019-02-10T03:09:14.557Z,97.20
2019-02-10T03:11:42.963Z,97.30
2019-02-10T03:14:11.356Z,97.40
2019-02-10T03:16:39.758Z,97.30
2019-02-10T03:19:08.249Z,97.40
2019-02-10T03:21:36.650Z,97.40
2019-02-10T03:24:05.056Z,97.40
2019-02-10T03:26:33.461Z,97.20
2019-02-10T03:29:01.861Z,97.20
2019-02-10T03:31:30.309Z,97.20
2019-02-10T03:34:18.156Z,97.20
2019-02-10T03:36:46.551Z,97.30
2019-02-10T03:39:14.951Z,97.20
2019-02-10T03:41:43.448Z,97.20
2019-02-10T03:44:11.845Z,97.10
2019-02-10T03:46:40.242Z,97.00
2019-02-10T03:49:08.666Z,97.20
2019-02-10T03:51:37.078Z,97.30
2019-02-10T03:54:05.472Z,97.20
2019-02-10T03:56:33.875Z,97.20
2019-02-10T03:59:02.267Z,97.10
2019-02-10T04:01:30.666Z,97.10
2019-02-10T04:03:59.096Z,97.30
2019-02-10T04:06:33.200Z,97.20
2019-02-10T04:09:01.618Z,97.20
2019-02-10T04:11:30.037Z,97.30
2019-02-10T04:13:58.432Z,97.30
2019-02-10T04:16:26.827Z,97.20
2019-02-10T04:18:55.220Z,97.20
2019-02-10T04:21:23.644Z,97.20
2019-02-10T04:23:52.044Z,97.20
2019-02-10T04:26:20.443Z,97.10
2019-02-10T04:28:48.844Z,97.20
2019-02-10T04:31:17.251Z,97.30
2019-02-10T04:33:45.673Z,97.50
2019-02-10T04:36:14.072Z,97.00
2019-02-10T04:38:42.460Z,97.10
2019-02-10T04:41:10.860Z,97.20
2019-02-10T04:43:39.264Z,96.90
2019-02-10T04:46:07.688Z,96.70
2019-02-10T04:48:36.085Z,96.60
2019-02-10T04:51:04.483Z,96.60
2019-02-10T04:53:32.898Z,96.50
2019-02-10T04:56:09.409Z,96.50
2019-02-10T04:58:37.799Z,96.40
2019-02-10T05:01:06.211Z,96.50
2019-02-10T05:03:34.629Z,96.50
2019-02-10T05:06:03.032Z,96.30
2019-02-10T05:08:31.413Z,96.40
2019-02-10T05:10:59.961Z,96.50
2019-02-10T05:13:28.364Z,96.40
2019-02-10T05:15:56.787Z,96.40
2019-02-10T05:18:25.183Z,96.50
2019-02-10T05:20:53.584Z,96.50
2019-02-10T05:23:21.988Z,96.50
2019-02-10T05:25:50.384Z,96.60
2019-02-10T05:28:18.812Z,96.40
2019-02-10T05:30:47.208Z,96.40
2019-02-10T05:33:15.597Z,96.60
2019-02-10T05:35:43.997Z,96.60
2019-02-10T05:38:12.460Z,96.50
2019-02-10T05:40:40.883Z,96.40
2019-02-10T05:43:09.284Z,96.40
2019-02-10T05:45:37.681Z,96.50
2019-02-10T05:48:06.153Z,96.50
2019-02-10T05:50:34.549Z,96.40
2019-02-10T05:53:02.967Z,96.50
2019-02-10T05:55:31.364Z,96.60
2019-02-10T05:57:59.764Z,96.60
2019-02-10T06:00:29.336Z,96.60
2019-02-10T06:02:57.732Z,96.70
2019-02-10T06:05:26.179Z,96.60
2019-02-10T06:07:54.573Z,96.70
2019-02-10T06:10:22.963Z,96.70
2019-02-10T06:12:51.369Z,96.70
2019-02-10T06:15:19.768Z,96.70
2019-02-10T06:17:48.163Z,96.80
2019-02-10T06:20:16.563Z,96.80
2019-02-10T06:22:44.955Z,96.80
2019-02-10T06:25:13.355Z,96.60
2019-02-10T06:27:41.759Z,96.70
2019-02-10T06:30:10.743Z,96.90
2019-02-10T06:32:39.280Z,96.90
2019-02-10T06:35:09.040Z,97.00
2019-02-10T06:37:37.436Z,96.80
2019-02-10T06:40:07.692Z,96.80
2019-02-10T06:42:36.097Z,96.90
2019-02-10T06:45:07.023Z,96.90
2019-02-10T06:47:35.426Z,96.80
2019-02-10T06:50:05.360Z,97.00
2019-02-10T06:52:33.743Z,96.90
2019-02-10T06:55:02.188Z,97.20
2019-02-10T06:57:30.596Z,97.30
2019-02-10T07:00:00.624Z,97.60
2019-02-10T07:02:30.692Z,97.30
2019-02-10T07:04:59.095Z,97.30
2019-02-10T07:07:27.544Z,97.40
2019-02-10T07:09:58.844Z,97.40
2019-02-10T07:12:50.395Z,97.40
2019-02-10T07:15:55.299Z,97.30
2019-02-10T07:19:00.070Z,97.10
2019-02-10T07:21:33.445Z,97.20
2019-02-10T07:24:25.004Z,97.30
2019-02-10T07:26:54.635Z,97.30
2019-02-10T07:29:50.451Z,97.40
2019-02-10T07:32:22.179Z,97.30
2019-02-10T07:34:59.836Z,97.40
2019-02-10T07:37:37.537Z,97.30
2019-02-10T07:40:26.609Z,97.30
2019-02-10T07:43:14.703Z,97.30
2019-02-10T07:45:49.523Z,97.10
2019-02-10T07:48:26.996Z,97.00
2019-02-10T07:51:01.390Z,97.00
2019-02-10T07:53:39.979Z,96.80
2019-02-10T07:56:33.853Z,96.90
2019-02-10T07:59:15.449Z,97.00
2019-02-10T08:02:14.317Z,96.90
2019-02-10T08:05:21.872Z,96.70
2019-02-10T08:08:02.282Z,96.70
2019-02-10T08:10:42.536Z,96.70
2019-02-10T08:13:30.516Z,96.70
2019-02-10T08:16:13.920Z,96.80
2019-02-10T08:18:57.467Z,96.60
2019-02-10T08:21:38.628Z,96.60
2019-02-10T08:24:16.015Z,96.70
2019-02-10T08:26:57.357Z,96.60
2019-02-10T08:29:31.641Z,96.80
2019-02-10T08:32:15.059Z,96.80
2019-02-10T08:34:55.736Z,96.80
2019-02-10T08:37:39.330Z,96.70
2019-02-10T08:40:32.036Z,96.80
2019-02-10T08:43:24.440Z,96.90
2019-02-10T08:46:13.003Z,96.80
2019-02-10T08:48:56.825Z,97.00
2019-02-10T08:51:55.452Z,96.80
2019-02-10T08:54:23.845Z,97.00
2019-02-10T08:56:53.335Z,97.90
2019-02-10T08:59:21.731Z,98.30
2019-02-10T09:01:50.803Z,98.60
2019-02-10T09:04:19.203Z,98.70
2019-02-10T09:06:47.599Z,98.60
2019-02-10T09:09:16.084Z,98.50
2019-02-10T09:11:44.552Z,98.50
2019-02-10T09:14:12.944Z,98.60
2019-02-10T09:16:41.421Z,98.30
2019-02-10T09:19:09.810Z,98.30
2019-02-10T09:21:38.275Z,98.30
2019-02-10T09:24:06.723Z,98.20
2019-02-10T09:26:35.123Z,98.30
2019-02-10T09:29:03.524Z,98.20
2019-02-10T09:31:33.169Z,98.20
2019-02-10T09:34:01.857Z,98.10
2019-02-10T09:36:30.320Z,98.40
2019-02-10T09:39:00.372Z,97.90
2019-02-10T09:41:28.769Z,97.90
2019-02-10T09:43:57.164Z,97.80
2019-02-10T09:46:25.595Z,97.60
2019-02-10T09:48:54.151Z,97.40
2019-02-10T09:51:25.436Z,97.30
2019-02-10T09:53:53.840Z,97.70
2019-02-10T09:56:22.232Z,97.80
2019-02-10T09:58:50.772Z,97.70
2019-02-10T10:01:19.243Z,97.40
2019-02-10T10:03:47.726Z,97.40
2019-02-10T10:06:16.192Z,97.00
2019-02-10T10:08:44.749Z,97.30
2019-02-10T10:11:13.176Z,97.20
2019-02-10T10:13:41.595Z,97.10
2019-02-10T10:16:10.000Z,97.20
2019-02-10T10:18:38.392Z,97.10
2019-02-10T10:21:06.795Z,97.00
2019-02-10T10:23:35.250Z,96.80
2019-02-10T10:26:03.681Z,96.80
2019-02-10T10:28:32.232Z,96.40
2019-02-10T10:31:00.639Z,96.30
2019-02-10T10:33:29.037Z,96.60
2019-02-10T10:35:57.572Z,96.60
2019-02-10T10:38:45.403Z,96.60
2019-02-10T10:41:13.904Z,96.40
2019-02-10T10:43:42.299Z,96.40
2019-02-10T10:46:10.701Z,96.30
2019-02-10T10:48:40.159Z,96.00
2019-02-10T10:51:08.621Z,96.00
2019-02-10T10:53:37.040Z,96.10
2019-02-10T10:56:05.463Z,96.40
2019-02-10T10:58:33.923Z,96.30
2019-02-10T11:01:02.408Z,96.10
2019-02-10T11:03:30.808Z,96.10
2019-02-10T11:05:59.300Z,95.80
2019-02-10T11:08:27.844Z,95.80
2019-02-10T11:10:56.244Z,95.50
2019-02-10T11:13:24.643Z,95.30
2019-02-10T11:15:53.035Z,95.40
2019-02-10T11:18:21.525Z,95.70
2019-02-10T11:20:49.938Z,95.50
2019-02-10T11:23:18.345Z,95.30
2019-02-10T11:25:46.764Z,95.60
2019-02-10T11:28:15.179Z,95.40
2019-02-10T11:30:43.671Z,95.60
2019-02-10T11:33:12.632Z,95.50
2019-02-10T11:35:41.168Z,95.40
2019-02-10T11:38:09.575Z,95.30
2019-02-10T11:40:37.973Z,95.00
2019-02-10T11:43:06.403Z,94.80
2019-02-10T11:45:34.964Z,94.80
2019-02-10T11:48:03.426Z,94.80
2019-02-10T11:50:31.819Z,94.80
2019-02-10T11:53:00.211Z,94.90
2019-02-10T11:55:28.761Z,94.80
2019-02-10T11:57:57.151Z,94.50
2019-02-10T12:00:25.552Z,94.40
2019-02-10T12:02:53.951Z,94.40
2019-02-10T12:05:22.344Z,94.60
2019-02-10T12:07:50.832Z,94.40
2019-02-10T12:10:19.291Z,94.10
2019-02-10T12:12:47.700Z,93.90
2019-02-10T12:15:25.133Z,93.70
2019-02-10T12:17:53.592Z,93.80
2019-02-10T12:20:22.015Z,93.90
2019-02-10T12:22:50.604Z,93.90
2019-02-10T12:25:19.121Z,93.50
2019-02-10T12:27:47.511Z,93.80
2019-02-10T12:30:16.956Z,93.50
2019-02-10T12:32:45.368Z,93.60
2019-02-10T12:35:13.769Z,93.70
2019-02-10T12:37:42.175Z,93.80
2019-02-10T12:40:11.708Z,93.70
2019-02-10T12:42:40.099Z,94.00
2019-02-10T12:45:11.024Z,93.90
2019-02-10T12:47:39.425Z,94.00
2019-02-10T12:50:12.581Z,93.90
2019-02-10T12:52:41.066Z,93.70
2019-02-10T12:55:10.691Z,93.70
2019-02-10T12:57:39.885Z,93.80
2019-02-10T13:00:20.046Z,93.60
2019-02-10T13:02:48.475Z,93.60
2019-02-10T13:05:16.874Z,93.80
2019-02-10T13:07:45.265Z,93.80
2019-02-10T13:10:17.447Z,93.40
2019-02-10T13:12:45.092Z,93.60
2019-02-10T13:15:13.782Z,93.60
2019-02-10T13:17:42.253Z,93.50
2019-02-10T13:20:13.824Z,93.80
2019-02-10T13:22:42.316Z,93.60
2019-02-10T13:25:14.919Z,93.60
2019-02-10T13:27:43.423Z,93.80
2019-02-10T13:30:16.824Z,93.90
2019-02-10T13:32:45.275Z,93.70
2019-02-10T13:35:13.683Z,93.30
2019-02-10T13:37:42.156Z,93.30
2019-02-10T13:40:17.104Z,93.50
2019-02-10T13:42:45.614Z,93.40
2019-02-10T13:45:14.090Z,93.50
2019-02-10T13:47:42.488Z,93.70
2019-02-10T13:50:19.161Z,94.00
2019-02-10T13:52:47.556Z,93.80
2019-02-10T13:55:16.700Z,93.80
2019-02-10T13:57:45.171Z,93.70
2019-02-10T14:00:24.927Z,93.90
2019-02-10T14:02:53.335Z,94.00
2019-02-10T14:05:22.607Z,94.10
2019-02-10T14:07:51.315Z,94.00
2019-02-10T14:10:25.440Z,94.10
2019-02-10T14:12:50.024Z,94.10
2019-02-10T14:15:19.823Z,94.00
2019-02-10T14:17:48.306Z,94.20
2019-02-10T14:20:18.038Z,94.30
2019-02-10T14:22:46.431Z,94.40
2019-02-10T14:25:14.900Z,94.30
2019-02-10T14:27:43.362Z,94.30
2019-02-10T14:30:14.680Z,94.30
2019-02-10T14:32:43.156Z,94.40
2019-02-10T14:35:11.629Z,94.60
2019-02-10T14:37:43.258Z,94.60
2019-02-10T14:40:11.817Z,94.60
2019-02-10T14:42:40.227Z,94.60
2019-02-10T14:45:13.310Z,94.70
2019-02-10T14:47:41.703Z,95.00
2019-02-10T14:50:15.839Z,95.10
2019-02-10T14:52:44.308Z,95.40
2019-02-10T14:55:12.778Z,95.40
2019-02-10T14:57:41.185Z,95.50
2019-02-10T15:00:12.315Z,95.40
2019-02-10T15:02:40.745Z,95.50
2019-02-10T15:05:11.890Z,95.40
2019-02-10T15:07:41.396Z,95.50
2019-02-10T15:10:13.064Z,95.50
2019-02-10T15:12:44.097Z,95.40
2019-02-10T15:15:12.574Z,95.40
2019-02-10T15:17:40.966Z,95.50
2019-02-10T15:20:10.831Z,95.50
2019-02-10T15:22:39.383Z,95.50
2019-02-10T15:25:14.298Z,95.70
2019-02-10T15:27:42.913Z,95.70
2019-02-10T15:30:13.059Z,95.90
2019-02-10T15:32:41.483Z,96.00
2019-02-10T15:35:09.892Z,96.00
2019-02-10T15:37:38.559Z,96.10
2019-02-10T15:40:09.288Z,96.20
2019-02-10T15:42:37.711Z,96.10
2019-02-10T15:45:09.165Z,96.10
2019-02-10T15:47:37.567Z,96.30
2019-02-10T15:50:09.020Z,96.60
2019-02-10T15:52:37.413Z,96.50
2019-02-10T15:55:07.748Z,96.50
2019-02-10T15:57:36.288Z,96.50
2019-02-10T16:00:08.028Z,96.60
2019-02-10T16:02:36.668Z,96.50
2019-02-10T16:05:05.847Z,96.70
2019-02-10T16:07:34.256Z,96.60
2019-02-10T16:10:03.972Z,96.60
2019-02-10T16:12:32.441Z,96.60
2019-02-10T16:15:00.979Z,96.60
2019-02-10T16:17:29.605Z,96.70
2019-02-10T16:19:58.102Z,96.60
2019-02-10T16:22:26.575Z,96.70
2019-02-10T16:24:56.804Z,96.70
2019-02-10T16:27:25.403Z,96.80
2019-02-10T16:29:53.856Z,96.80
2019-02-10T16:32:22.389Z,96.80
2019-02-10T16:34:50.812Z,96.70
2019-02-10T16:37:20.606Z,96.90
2019-02-10T16:39:49.516Z,96.80
2019-02-10T16:42:17.980Z,96.90
2019-02-10T16:44:46.384Z,96.70
2019-02-10T16:47:14.808Z,96.90
2019-02-10T16:49:43.236Z,97.00
2019-02-10T16:52:11.634Z,96.90
2019-02-10T16:54:40.048Z,96.80
2019-02-10T16:57:10.291Z,96.80
2019-02-10T16:59:38.811Z,96.60
2019-02-10T17:02:07.210Z,96.70
2019-02-10T17:04:35.619Z,96.70
2019-02-10T17:07:04.025Z,96.80
2019-02-10T17:09:32.456Z,96.60
2019-02-10T17:12:01.749Z,96.70
2019-02-10T17:14:30.143Z,96.70
2019-02-10T17:16:58.627Z,96.70
2019-02-10T17:19:27.036Z,96.70
2019-02-10T17:21:56.715Z,96.90
2019-02-10T17:24:25.130Z,97.00
2019-02-10T17:26:56.367Z,97.00
2019-02-10T17:29:24.773Z,97.50
2019-02-10T17:31:53.190Z,97.00
2019-02-10T17:34:21.586Z,97.00
2019-02-10T17:36:50.088Z,97.10
2019-02-10T17:39:18.583Z,97.20
2019-02-10T17:41:47.159Z,97.30
2019-02-10T17:44:15.638Z,97.10
2019-02-10T17:46:44.109Z,97.00
2019-02-10T17:49:12.568Z,96.90
2019-02-10T17:51:41.036Z,97.00
2019-02-10T17:54:09.459Z,96.80
2019-02-10T17:56:38.082Z,96.80
2019-02-10T17:59:06.472Z,96.70
2019-02-10T18:01:34.940Z,96.80
2019-02-10T18:04:03.399Z,96.80
2019-02-10T18:06:32.856Z,96.70
2019-02-10T18:09:01.307Z,96.70
2019-02-10T18:11:31.109Z,96.70
2019-02-10T18:14:01.528Z,96.70
2019-02-10T18:16:31.567Z,96.70
2019-02-10T18:19:10.679Z,96.60
2019-02-10T18:21:40.775Z,96.60
2019-02-10T18:24:27.259Z,96.50
2019-02-10T18:27:00.142Z,96.50
2019-02-10T18:29:37.891Z,96.40
2019-02-10T18:32:10.295Z,96.40
2019-02-10T18:34:39.747Z,96.30
2019-02-10T18:37:15.499Z,96.40
2019-02-10T18:40:02.164Z,96.40
2019-02-10T18:42:32.582Z,96.30
2019-02-10T18:45:17.921Z,96.20
2019-02-10T18:47:47.992Z,96.00
2019-02-10T18:50:34.740Z,96.30
2019-02-10T18:53:19.956Z,96.20
2019-02-10T18:55:56.215Z,96.20
2019-02-10T18:58:29.052Z,96.20
2019-02-10T19:00:59.147Z,96.20
2019-02-10T19:03:29.223Z,96.10
2019-02-10T19:05:59.338Z,96.00
2019-02-10T19:08:29.416Z,96.10
2019-02-10T19:11:11.855Z,96.10
2019-02-10T19:13:51.084Z,96.10
2019-02-10T19:16:27.300Z,96.20
2019-02-10T19:19:01.751Z,96.10
2019-02-10T19:21:32.335Z,96.00
2019-02-10T19:24:08.957Z,96.00
2019-02-10T19:26:44.829Z,96.00
2019-02-10T19:29:31.351Z,95.90
2019-02-10T19:32:01.535Z,96.00
2019-02-10T19:34:31.647Z,96.00
2019-02-10T19:37:04.644Z,96.00
2019-02-10T19:39:42.262Z,96.10
2019-02-10T19:42:24.218Z,96.00
2019-02-10T19:44:57.147Z,95.90
2019-02-10T19:47:29.968Z,95.80
2019-02-10T19:50:00.003Z,95.80
2019-02-10T19:52:33.063Z,95.80
2019-02-10T19:55:08.861Z,95.80
2019-02-10T19:57:41.824Z,95.80
2019-02-10T20:00:21.419Z,95.70
2019-02-10T20:02:51.543Z,95.80
2019-02-10T20:05:24.478Z,95.70
2019-02-10T20:07:57.711Z,95.60
2019-02-10T20:10:30.467Z,95.60
2019-02-10T20:13:00.607Z,95.60
2019-02-10T20:15:37.789Z,95.60
2019-02-10T20:18:29.979Z,95.60
2019-02-10T20:21:14.804Z,95.40
2019-02-10T20:23:57.569Z,95.50
2019-02-10T20:26:27.679Z,95.50
2019-02-10T20:28:57.849Z,95.40
2019-02-10T20:31:27.915Z,95.40
2019-02-10T20:34:03.927Z,95.30
2019-02-10T20:36:45.979Z,95.30
2019-02-10T20:39:20.138Z,95.30
2019-02-10T20:41:50.250Z,95.30
2019-02-10T20:44:29.299Z,95.20
2019-02-10T20:46:59.338Z,95.10
2019-02-10T20:49:31.842Z,95.20
2019-02-10T20:52:07.175Z,95.10
2019-02-10T20:54:43.083Z,95.10
2019-02-10T20:57:13.120Z,95.30
2019-02-10T20:59:59.680Z,95.50
2019-02-10T21:02:35.472Z,95.40
2019-02-10T21:05:05.822Z,95.60
2019-02-10T21:07:38.796Z,95.70
2019-02-10T21:10:18.292Z,95.60
2019-02-10T21:12:51.055Z,95.60
2019-02-10T21:15:37.432Z,95.70
2019-02-10T21:18:07.468Z,95.70
2019-02-10T21:20:37.512Z,95.70
2019-02-10T21:23:10.656Z,95.80
2019-02-10T21:25:40.692Z,95.90
2019-02-10T21:28:10.734Z,95.90
2019-02-10T21:30:57.311Z,95.90
2019-02-10T21:33:43.707Z,96.00
2019-02-10T21:36:22.811Z,96.10
2019-02-10T21:38:55.576Z,96.20
2019-02-10T21:41:28.392Z,96.20
2019-02-10T21:44:14.981Z,96.10
2019-02-10T21:46:44.996Z,96.00
2019-02-10T21:49:13.404Z,96.00
2019-02-10T21:51:42.039Z,96.00
2019-02-10T21:54:10.432Z,96.00
2019-02-10T21:56:38.847Z,96.10
2019-02-10T21:59:07.243Z,96.00
2019-02-10T22:01:35.747Z,96.00
2019-02-10T22:04:04.151Z,96.10
2019-02-10T22:06:32.543Z,96.10
2019-02-10T22:09:03.135Z,95.90
2019-02-10T22:11:31.454Z,95.90
2019-02-10T22:13:59.844Z,95.90
2019-02-10T22:16:28.248Z,95.90
2019-02-10T22:18:56.647Z,95.80
2019-02-10T22:21:25.069Z,95.80
2019-02-10T22:23:53.463Z,95.70
2019-02-10T22:26:21.871Z,95.60
2019-02-10T22:28:50.275Z,95.50
2019-02-10T22:31:19.192Z,95.30
2019-02-10T22:33:51.478Z,95.40
2019-02-10T22:36:17.908Z,95.20
2019-02-10T22:38:46.308Z,95.00
2019-02-10T22:41:14.707Z,94.90
2019-02-10T22:43:43.095Z,94.80
2019-02-10T22:46:11.523Z,94.90
2019-02-10T22:48:39.921Z,94.90
2019-02-10T22:51:10.107Z,94.90
2019-02-10T22:53:38.367Z,95.00
2019-02-10T22:56:06.760Z,95.00
2019-02-10T22:58:35.223Z,95.00
2019-02-10T23:01:04.163Z,95.00
2019-02-10T23:03:32.560Z,95.20
2019-02-10T23:06:00.968Z,95.30
2019-02-10T23:08:29.360Z,95.50
2019-02-10T23:10:57.779Z,95.60
2019-02-10T23:13:26.207Z,95.90
2019-02-10T23:15:54.671Z,95.70
2019-02-10T23:18:23.071Z,95.80
2019-02-10T23:20:53.615Z,96.30
2019-02-10T23:23:21.800Z,96.10
2019-02-10T23:25:50.199Z,95.90
2019-02-10T23:28:18.589Z,96.00
2019-02-10T23:30:47.137Z,96.10
2019-02-10T23:33:15.592Z,96.30
2019-02-10T23:35:44.024Z,96.30
2019-02-10T23:38:12.423Z,96.50
2019-02-10T23:40:40.886Z,96.60
2019-02-10T23:43:09.383Z,96.80
2019-02-10T23:45:37.835Z,96.80
2019-02-10T23:48:06.263Z,96.90
2019-02-10T23:50:34.663Z,97.00
2019-02-10T23:53:03.055Z,97.30
2019-02-10T23:55:31.459Z,97.20
2019-02-10T23:57:59.852Z,97.20
